createdAt,value
2018-11-01T00:01:30.280Z,4.30
2018-11-01T00:03:57.835Z,4.80
2018-11-01T00:06:25.603Z,9.53
2018-11-01T00:08:53.336Z,6.50
2018-11-01T00:11:21.018Z,6.13
2018-11-01T00:13:48.671Z,7.70
2018-11-01T00:16:16.354Z,5.10
2018-11-01T00:18:43.966Z,5.40
2018-11-01T00:21:11.604Z,5.57
2018-11-01T00:23:39.625Z,4.10
2018-11-01T00:26:07.504Z,3.80
2018-11-01T00:28:35.226Z,4.97
2018-11-01T00:31:03.004Z,5.00
2018-11-01T00:33:30.676Z,6.90
2018-11-01T00:35:58.360Z,5.17
2018-11-01T00:38:25.973Z,11.33
2018-11-01T00:40:53.559Z,4.00
2018-11-01T00:43:21.217Z,7.50
2018-11-01T00:45:48.976Z,6.10
2018-11-01T00:48:16.772Z,7.17
2018-11-01T00:50:44.454Z,3.70
2018-11-01T00:53:12.065Z,6.03
2018-11-01T00:55:39.708Z,7.90
2018-11-01T00:58:07.529Z,4.10
2018-11-01T01:00:35.139Z,3.90
2018-11-01T01:03:02.821Z,5.90
2018-11-01T01:05:30.440Z,4.23
2018-11-01T01:07:58.043Z,4.13
2018-11-01T01:10:25.705Z,6.50
2018-11-01T01:12:53.315Z,5.90
2018-11-01T01:15:21.024Z,4.47
2018-11-01T01:17:48.684Z,5.10
2018-11-01T01:20:17.259Z,4.87
2018-11-01T01:22:45.682Z,4.73
2018-11-01T01:25:14.631Z,5.27
2018-11-01T01:27:42.304Z,4.70
2018-11-01T01:30:12.482Z,7.23
2018-11-01T01:32:40.203Z,4.63
2018-11-01T01:35:08.790Z,4.97
2018-11-01T01:37:36.551Z,4.13
2018-11-01T01:40:04.299Z,4.03
2018-11-01T01:42:35.932Z,4.97
2018-11-01T01:45:04.176Z,5.07
2018-11-01T01:47:31.952Z,3.73
2018-11-01T01:49:59.800Z,3.83
2018-11-01T01:52:27.631Z,6.03
2018-11-01T01:54:55.258Z,4.07
2018-11-01T01:57:22.898Z,4.60
2018-11-01T01:59:50.495Z,6.60
2018-11-01T02:02:18.107Z,5.90
2018-11-01T02:04:45.780Z,4.40
2018-11-01T02:07:13.518Z,4.83
2018-11-01T02:09:41.178Z,4.03
2018-11-01T02:12:08.811Z,5.67
2018-11-01T02:14:36.496Z,6.03
2018-11-01T02:17:04.261Z,7.70
2018-11-01T02:19:31.885Z,5.30
2018-11-01T02:21:59.511Z,7.40
2018-11-01T02:24:27.190Z,6.87
2018-11-01T02:26:54.820Z,3.90
2018-11-01T02:29:22.482Z,3.63
2018-11-01T02:31:50.117Z,5.70
2018-11-01T02:34:17.791Z,5.30
2018-11-01T02:36:45.395Z,5.10
2018-11-01T02:39:14.460Z,4.40
2018-11-01T02:41:42.159Z,4.97
2018-11-01T02:44:10.377Z,8.00
2018-11-01T02:46:37.993Z,6.13
2018-11-01T02:49:06.427Z,5.33
2018-11-01T02:51:34.011Z,5.43
2018-11-01T02:54:01.629Z,6.83
2018-11-01T02:56:29.290Z,4.93
2018-11-01T02:58:56.895Z,6.80
2018-11-01T03:01:24.449Z,4.67
2018-11-01T03:03:52.115Z,15.27
2018-11-01T03:06:19.727Z,5.27
2018-11-01T03:08:47.389Z,5.10
2018-11-01T03:11:15.222Z,4.50
2018-11-01T03:13:43.075Z,5.80
2018-11-01T03:16:10.674Z,6.57
2018-11-01T03:18:38.330Z,6.00
2018-11-01T03:21:05.965Z,5.83
2018-11-01T03:23:33.831Z,7.73
2018-11-01T03:26:01.483Z,7.03
2018-11-01T03:28:29.122Z,4.73
2018-11-01T03:30:56.739Z,4.97
2018-11-01T03:33:24.383Z,5.43
2018-11-01T03:35:52.014Z,4.10
2018-11-01T03:38:19.639Z,6.77
2018-11-01T03:40:47.310Z,4.97
2018-11-01T03:43:14.923Z,6.43
2018-11-01T03:45:42.540Z,4.57
2018-11-01T03:48:10.171Z,7.40
2018-11-01T03:50:37.802Z,5.43
2018-11-01T03:53:05.568Z,5.33
2018-11-01T03:55:33.228Z,8.20
2018-11-01T03:58:00.902Z,4.80
2018-11-01T04:00:28.558Z,5.97
2018-11-01T04:02:56.192Z,4.30
2018-11-01T04:05:23.801Z,5.83
2018-11-01T04:07:51.556Z,8.13
2018-11-01T04:10:19.175Z,5.90
2018-11-01T04:12:46.851Z,6.13
2018-11-01T04:15:15.174Z,6.23
2018-11-01T04:17:42.807Z,7.03
2018-11-01T04:20:11.971Z,5.13
2018-11-01T04:22:39.709Z,5.30
2018-11-01T04:25:07.351Z,5.10
2018-11-01T04:27:35.024Z,5.37
2018-11-01T04:30:02.627Z,4.10
2018-11-01T04:32:30.227Z,4.10
2018-11-01T04:34:58.112Z,9.33
2018-11-01T04:37:25.764Z,6.97
2018-11-01T04:39:53.411Z,8.77
2018-11-01T04:42:21.085Z,5.63
2018-11-01T04:44:48.771Z,7.30
2018-11-01T04:47:16.400Z,4.60
2018-11-01T04:49:44.024Z,4.30
2018-11-01T04:52:11.610Z,3.93
2018-11-01T04:54:39.263Z,3.80
2018-11-01T04:57:06.911Z,6.60
2018-11-01T04:59:34.937Z,6.27
2018-11-01T05:02:02.656Z,4.00
2018-11-01T05:04:30.284Z,4.90
2018-11-01T05:06:58.113Z,4.10
2018-11-01T05:09:25.775Z,6.33
2018-11-01T05:11:53.546Z,5.57
2018-11-01T05:14:21.202Z,4.40
2018-11-01T05:16:49.442Z,5.03
2018-11-01T05:19:17.160Z,4.60
2018-11-01T05:21:44.932Z,6.80
2018-11-01T05:24:12.702Z,5.10
2018-11-01T05:26:40.461Z,5.67
2018-11-01T05:29:08.843Z,5.77
2018-11-01T05:31:36.402Z,4.43
2018-11-01T05:34:04.207Z,4.90
2018-11-01T05:36:31.826Z,6.70
2018-11-01T05:38:59.530Z,4.27
2018-11-01T05:41:27.398Z,6.83
2018-11-01T05:43:55.060Z,10.77
2018-11-01T05:46:22.738Z,5.47
2018-11-01T05:48:50.484Z,5.00
2018-11-01T05:51:18.135Z,6.10
2018-11-01T05:53:45.783Z,9.83
2018-11-01T05:56:14.638Z,6.73
2018-11-01T05:58:42.690Z,5.20
2018-11-01T06:01:14.650Z,4.77
2018-11-01T06:03:44.264Z,4.60
2018-11-01T06:06:12.225Z,5.27
2018-11-01T06:08:43.023Z,5.93
2018-11-01T06:11:10.854Z,5.00
2018-11-01T06:16:26.660Z,5.40
2018-11-01T06:18:54.325Z,5.43
2018-11-01T06:21:21.979Z,7.63
2018-11-01T06:23:49.572Z,6.07
2018-11-01T06:26:17.528Z,12.07
2018-11-01T06:28:45.225Z,6.67
2018-11-01T06:31:12.912Z,5.97
2018-11-01T06:33:40.537Z,5.57
2018-11-01T06:36:11.207Z,5.73
2018-11-01T06:38:38.865Z,4.83
2018-11-01T06:41:06.588Z,4.03
2018-11-01T06:43:41.750Z,6.83
2018-11-01T06:46:09.483Z,9.63
2018-11-01T06:48:37.123Z,6.37
2018-11-01T06:51:05.336Z,4.60
2018-11-01T06:53:32.975Z,5.67
2018-11-01T06:56:00.632Z,7.20
2018-11-01T06:58:28.280Z,6.03
2018-11-01T07:00:55.801Z,5.20
2018-11-01T07:03:23.344Z,5.30
2018-11-01T07:05:51.076Z,12.10
2018-11-01T07:08:18.659Z,4.90
2018-11-01T07:10:46.198Z,11.10
2018-11-01T07:13:13.808Z,4.70
2018-11-01T07:15:41.337Z,7.70
2018-11-01T07:18:09.019Z,6.10
2018-11-01T07:20:36.670Z,8.27
2018-11-01T07:23:04.351Z,6.63
2018-11-01T07:25:32.402Z,5.47
2018-11-01T07:27:59.970Z,7.83
2018-11-01T07:30:27.685Z,5.13
2018-11-01T07:32:55.267Z,5.57
2018-11-01T07:35:22.895Z,5.30
2018-11-01T07:37:50.495Z,6.00
2018-11-01T07:40:18.527Z,9.80
2018-11-01T07:42:46.126Z,7.50
2018-11-01T07:45:14.268Z,6.20
2018-11-01T07:47:42.956Z,7.40
2018-11-01T07:50:11.438Z,6.40
2018-11-01T07:52:39.565Z,11.67
2018-11-01T07:55:07.689Z,7.43
2018-11-01T07:57:35.255Z,6.93
2018-11-01T08:00:02.794Z,7.93
2018-11-01T08:02:30.370Z,10.20
2018-11-01T08:04:57.973Z,10.40
2018-11-01T08:07:25.660Z,6.63
2018-11-01T08:09:53.255Z,12.97
2018-11-01T08:12:20.818Z,7.30
2018-11-01T08:14:48.428Z,8.20
2018-11-01T08:17:16.104Z,9.90
2018-11-01T08:19:43.795Z,7.33
2018-11-01T08:22:11.378Z,7.80
2018-11-01T08:24:38.970Z,9.37
2018-11-01T08:27:06.635Z,10.57
2018-11-01T08:29:34.241Z,7.17
2018-11-01T08:32:01.938Z,6.30
2018-11-01T08:34:29.672Z,17.33
2018-11-01T08:36:57.294Z,6.20
2018-11-01T08:39:24.921Z,6.67
2018-11-01T08:41:52.560Z,9.10
2018-11-01T08:44:20.098Z,10.60
2018-11-01T08:46:47.647Z,6.13
2018-11-01T08:49:15.366Z,6.50
2018-11-01T08:51:42.884Z,12.60
2018-11-01T08:54:10.487Z,9.57
2018-11-01T08:56:38.088Z,7.40
2018-11-01T08:59:05.927Z,8.20
2018-11-01T09:01:34.050Z,8.40
2018-11-01T09:04:01.805Z,9.37
2018-11-01T09:06:29.360Z,7.97
2018-11-01T09:08:56.943Z,12.87
2018-11-01T09:11:24.547Z,10.73
2018-11-01T09:13:52.134Z,11.47
2018-11-01T09:16:19.739Z,8.83
2018-11-01T09:18:47.271Z,6.97
2018-11-01T09:21:14.854Z,8.77
2018-11-01T09:23:42.469Z,11.43
2018-11-01T09:26:10.070Z,8.73
2018-11-01T09:28:37.626Z,9.30
2018-11-01T09:31:05.226Z,7.87
2018-11-01T09:33:32.833Z,8.80
2018-11-01T09:36:00.384Z,10.10
2018-11-01T09:38:27.876Z,16.07
2018-11-01T09:40:55.419Z,7.07
2018-11-01T09:43:22.985Z,8.60
2018-11-01T09:45:50.555Z,12.57
2018-11-01T09:48:18.167Z,10.40
2018-11-01T09:50:45.798Z,11.20
2018-11-01T09:53:13.403Z,14.93
2018-11-01T09:55:41.052Z,8.27
2018-11-01T09:58:08.579Z,15.40
2018-11-01T10:00:36.173Z,12.80
2018-11-01T10:03:04.015Z,13.60
2018-11-01T10:05:31.587Z,19.20
2018-11-01T10:07:59.294Z,9.63
2018-11-01T10:10:27.018Z,13.73
2018-11-01T10:12:54.515Z,9.13
2018-11-01T10:15:22.327Z,13.80
2018-11-01T10:17:50.036Z,14.53
2018-11-01T10:20:17.355Z,8.47
2018-11-01T10:22:45.399Z,10.63
2018-11-01T10:25:14.386Z,14.20
2018-11-01T10:27:42.288Z,11.50
2018-11-01T10:30:11.078Z,10.73
2018-11-01T10:32:38.634Z,14.83
2018-11-01T10:35:06.291Z,10.40
2018-11-01T10:37:33.851Z,8.33
2018-11-01T10:40:01.572Z,13.13
2018-11-01T10:42:30.094Z,11.10
2018-11-01T10:44:57.656Z,10.67
2018-11-01T10:47:25.255Z,7.60
2018-11-01T10:49:52.883Z,17.27
2018-11-01T10:52:20.453Z,12.33
2018-11-01T10:54:48.114Z,11.20
2018-11-01T10:57:15.664Z,8.10
2018-11-01T10:59:43.207Z,8.87
2018-11-01T11:02:19.895Z,16.70
2018-11-01T11:04:47.482Z,10.70
2018-11-01T11:07:15.157Z,9.27
2018-11-01T11:09:42.779Z,13.03
2018-11-01T11:12:10.273Z,10.53
2018-11-01T11:14:38.131Z,10.37
2018-11-01T11:17:05.750Z,10.23
2018-11-01T11:19:33.334Z,8.07
2018-11-01T11:22:00.899Z,9.07
2018-11-01T11:24:28.430Z,11.73
2018-11-01T11:26:55.927Z,9.93
2018-11-01T11:29:23.453Z,18.30
2018-11-01T11:31:51.122Z,14.80
2018-11-01T11:34:18.687Z,7.63
2018-11-01T11:36:46.261Z,9.43
2018-11-01T11:39:13.926Z,10.53
2018-11-01T11:41:42.048Z,8.40
2018-11-01T11:44:10.093Z,11.33
2018-11-01T11:46:37.755Z,8.07
2018-11-01T11:49:05.786Z,11.50
2018-11-01T11:51:33.388Z,9.87
2018-11-01T11:54:00.954Z,7.60
2018-11-01T11:56:28.540Z,10.27
2018-11-01T11:58:56.068Z,12.83
2018-11-01T12:01:24.253Z,8.30
2018-11-01T12:03:51.951Z,11.50
2018-11-01T12:06:19.676Z,9.37
2018-11-01T12:08:47.156Z,9.90
2018-11-01T12:11:14.755Z,13.07
2018-11-01T12:13:42.425Z,11.83
2018-11-01T12:16:10.144Z,12.63
2018-11-01T12:18:37.762Z,7.47
2018-11-01T12:21:05.343Z,11.17
2018-11-01T12:23:33.022Z,10.27
2018-11-01T12:26:00.560Z,10.80
2018-11-01T12:28:28.274Z,10.00
2018-11-01T12:30:55.846Z,14.07
2018-11-01T12:33:23.417Z,9.50
2018-11-01T12:35:51.077Z,10.40
2018-11-01T12:38:18.612Z,13.67
2018-11-01T12:40:46.244Z,10.50
2018-11-01T12:43:13.797Z,16.80
2018-11-01T12:45:41.323Z,14.13
2018-11-01T12:48:08.894Z,18.13
2018-11-01T12:50:36.472Z,11.90
2018-11-01T12:53:04.069Z,17.33
2018-11-01T12:55:31.694Z,14.83
2018-11-01T12:57:59.289Z,12.30
2018-11-01T13:00:26.847Z,12.60
2018-11-01T13:02:54.483Z,13.33
2018-11-01T13:05:22.019Z,10.23
2018-11-01T13:07:49.584Z,12.50
2018-11-01T13:10:17.164Z,11.60
2018-11-01T13:12:44.733Z,16.33
2018-11-01T13:15:12.875Z,23.33
2018-11-01T13:17:40.454Z,23.00
2018-11-01T13:20:08.289Z,19.53
2018-11-01T13:22:35.901Z,17.53
2018-11-01T13:25:03.507Z,19.17
2018-11-01T13:27:31.020Z,17.03
2018-11-01T13:29:58.599Z,21.40
2018-11-01T13:32:26.160Z,21.23
2018-11-01T13:34:53.881Z,21.13
2018-11-01T13:37:21.421Z,19.40
2018-11-01T13:39:49.166Z,19.63
2018-11-01T13:42:16.740Z,21.50
2018-11-01T13:44:44.355Z,19.60
2018-11-01T13:47:12.097Z,20.93
2018-11-01T13:49:39.635Z,22.43
2018-11-01T13:52:07.261Z,23.60
2018-11-01T13:54:34.861Z,22.23
2018-11-01T13:57:02.423Z,25.10
2018-11-01T13:59:30.023Z,24.07
2018-11-01T14:01:57.608Z,28.83
2018-11-01T14:04:25.306Z,19.60
2018-11-01T14:06:52.861Z,22.30
2018-11-01T14:09:20.414Z,25.57
2018-11-01T14:11:48.237Z,23.43
2018-11-01T14:14:16.230Z,25.73
2018-11-01T14:16:45.232Z,24.20
2018-11-01T14:19:13.588Z,28.50
2018-11-01T14:21:41.157Z,24.90
2018-11-01T14:24:08.874Z,29.33
2018-11-01T14:26:36.541Z,39.10
2018-11-01T14:29:04.230Z,29.70
2018-11-01T14:31:40.071Z,28.70
2018-11-01T14:34:11.155Z,26.17
2018-11-01T14:36:40.287Z,30.50
2018-11-01T14:39:08.783Z,26.03
2018-11-01T14:41:36.361Z,25.43
2018-11-01T14:44:04.017Z,38.50
2018-11-01T14:46:31.775Z,43.20
2018-11-01T14:48:59.336Z,31.50
2018-11-01T14:51:27.084Z,32.20
2018-11-01T14:53:56.126Z,30.13
2018-11-01T14:56:25.338Z,32.80
2018-11-01T14:58:53.266Z,35.87
2018-11-01T15:01:22.943Z,27.13
2018-11-01T15:03:51.402Z,29.87
2018-11-01T15:06:20.959Z,30.47
2018-11-01T15:08:48.633Z,33.90
2018-11-01T15:11:18.348Z,30.93
2018-11-01T15:13:47.531Z,25.53
2018-11-01T15:16:19.591Z,32.87
2018-11-01T15:18:47.757Z,33.03
2018-11-01T15:21:15.382Z,30.53
2018-11-01T15:23:45.219Z,31.03
2018-11-01T15:26:14.447Z,29.80
2018-11-01T15:28:42.092Z,34.10
2018-11-01T15:31:09.821Z,37.30
2018-11-01T15:33:38.686Z,36.83
2018-11-01T15:36:09.593Z,30.00
2018-11-01T15:38:37.407Z,31.93
2018-11-01T15:41:11.266Z,33.07
2018-11-01T15:43:39.095Z,31.77
2018-11-01T15:46:07.503Z,32.47
2018-11-01T15:48:35.177Z,33.23
2018-11-01T15:51:02.860Z,34.93
2018-11-01T15:53:30.519Z,31.93
2018-11-01T15:55:58.904Z,27.93
2018-11-01T15:58:26.870Z,26.50
2018-11-01T16:00:55.881Z,29.67
2018-11-01T16:03:23.674Z,29.93
2018-11-01T16:05:51.313Z,33.13
2018-11-01T16:08:18.995Z,34.30
2018-11-01T16:10:46.666Z,30.10
2018-11-01T16:13:14.411Z,34.47
2018-11-01T16:15:42.048Z,27.13
2018-11-01T16:18:09.639Z,34.57
2018-11-01T16:20:37.271Z,31.70
2018-11-01T16:23:05.118Z,32.87
2018-11-01T16:25:32.722Z,35.47
2018-11-01T16:28:00.338Z,33.90
2018-11-01T16:30:27.939Z,34.57
2018-11-01T16:32:55.596Z,42.50
2018-11-01T16:35:23.234Z,29.50
2018-11-01T16:37:51.116Z,43.03
2018-11-01T16:40:18.758Z,35.57
2018-11-01T16:42:46.418Z,32.83
2018-11-01T16:45:15.227Z,34.40
2018-11-01T16:47:42.901Z,32.47
2018-11-01T16:50:10.929Z,37.17
2018-11-01T16:52:39.358Z,36.03
2018-11-01T16:55:07.219Z,35.93
2018-11-01T16:57:34.855Z,31.47
2018-11-01T17:00:02.480Z,39.73
2018-11-01T17:02:30.098Z,41.63
2018-11-01T17:04:57.731Z,34.90
2018-11-01T17:07:25.365Z,31.03
2018-11-01T17:09:53.162Z,36.27
2018-11-01T17:12:20.786Z,29.07
2018-11-01T17:14:48.402Z,38.00
2018-11-01T17:17:16.035Z,35.60
2018-11-01T17:19:43.693Z,30.97
2018-11-01T17:22:11.302Z,30.50
2018-11-01T17:24:38.958Z,34.13
2018-11-01T17:27:06.685Z,33.17
2018-11-01T17:29:34.374Z,35.80
2018-11-01T17:32:02.041Z,35.73
2018-11-01T17:34:29.703Z,37.07
2018-11-01T17:36:57.333Z,37.53
2018-11-01T17:39:24.911Z,40.93
2018-11-01T17:41:52.676Z,37.83
2018-11-01T17:44:20.275Z,34.10
2018-11-01T17:46:47.899Z,36.10
2018-11-01T17:49:15.753Z,38.03
2018-11-01T17:51:45.219Z,33.70
2018-11-01T17:54:15.607Z,31.40
2018-11-01T17:56:44.468Z,39.30
2018-11-01T17:59:12.141Z,40.97
2018-11-01T18:01:39.907Z,40.83
2018-11-01T18:04:07.852Z,38.90
2018-11-01T18:06:35.642Z,39.50
2018-11-01T18:09:05.561Z,45.10
2018-11-01T18:11:33.221Z,44.23
2018-11-01T18:14:00.822Z,44.77
2018-11-01T18:16:28.517Z,41.07
2018-11-01T18:18:56.335Z,38.03
2018-11-01T18:21:23.953Z,43.43
2018-11-01T18:23:51.515Z,41.67
2018-11-01T18:26:19.248Z,35.30
2018-11-01T18:28:47.056Z,39.20
2018-11-01T18:31:14.870Z,37.20
2018-11-01T18:33:42.968Z,55.07
2018-11-01T18:36:10.992Z,37.40
2018-11-01T18:38:39.627Z,46.13
2018-11-01T18:41:07.325Z,38.50
2018-11-01T18:43:34.997Z,37.53
2018-11-01T18:46:03.073Z,36.40
2018-11-01T18:48:30.871Z,30.53
2018-11-01T18:50:58.608Z,35.03
2018-11-01T18:53:26.460Z,38.00
2018-11-01T18:55:56.621Z,32.10
2018-11-01T18:58:24.237Z,36.60
2018-11-01T19:00:53.234Z,34.70
2018-11-01T19:03:26.359Z,39.83
2018-11-01T19:05:54.026Z,37.67
2018-11-01T19:08:21.807Z,35.80
2018-11-01T19:10:49.574Z,40.17
2018-11-01T19:13:17.177Z,35.33
2018-11-01T19:15:44.874Z,42.93
2018-11-01T19:18:12.590Z,34.20
2018-11-01T19:20:40.237Z,38.60
2018-11-01T19:23:07.958Z,38.80
2018-11-01T19:25:37.880Z,38.27
2018-11-01T19:28:06.886Z,43.47
2018-11-01T19:30:34.442Z,37.27
2018-11-01T19:33:02.199Z,35.90
2018-11-01T19:35:30.053Z,35.60
2018-11-01T19:37:57.800Z,35.47
2018-11-01T19:40:29.247Z,33.03
2018-11-01T19:42:58.826Z,37.60
2018-11-01T19:45:30.627Z,39.73
2018-11-01T19:47:58.452Z,43.20
2018-11-01T19:50:26.170Z,34.40
2018-11-01T19:52:53.900Z,34.73
2018-11-01T19:55:21.600Z,39.80
2018-11-01T19:57:51.608Z,34.27
2018-11-01T20:00:19.358Z,34.73
2018-11-01T20:02:47.971Z,33.30
2018-11-01T20:05:15.551Z,30.63
2018-11-01T20:07:43.247Z,32.00
2018-11-01T20:10:12.321Z,32.97
2018-11-01T20:12:41.423Z,32.73
2018-11-01T20:15:09.311Z,35.07
2018-11-01T20:17:38.527Z,35.47
2018-11-01T20:20:08.094Z,34.20
2018-11-01T20:22:35.827Z,31.20
2018-11-01T20:25:03.669Z,32.33
2018-11-01T20:27:31.425Z,33.83
2018-11-01T20:29:59.295Z,31.63
2018-11-01T20:32:26.899Z,37.30
2018-11-01T20:34:54.682Z,32.93
2018-11-01T20:37:22.343Z,33.53
2018-11-01T20:39:50.075Z,33.60
2018-11-01T20:42:17.699Z,26.50
2018-11-01T20:44:46.481Z,31.87
2018-11-01T20:47:14.348Z,29.47
2018-11-01T20:49:41.979Z,32.77
2018-11-01T20:52:09.827Z,39.38
2018-11-01T20:54:38.218Z,32.77
2018-11-01T20:57:05.938Z,31.73
2018-11-01T20:59:33.721Z,30.03
2018-11-01T21:02:01.658Z,32.80
2018-11-01T21:04:29.398Z,29.30
2018-11-01T21:06:57.175Z,32.00
2018-11-01T21:09:24.999Z,29.70
2018-11-01T21:11:52.966Z,29.20
2018-11-01T21:14:20.594Z,27.73
2018-11-01T21:16:48.549Z,30.00
2018-11-01T21:19:16.451Z,43.93
2018-11-01T21:21:44.123Z,34.27
2018-11-01T21:24:11.875Z,30.27
2018-11-01T21:26:39.681Z,31.03
2018-11-01T21:29:07.357Z,30.80
2018-11-01T21:31:34.966Z,37.03
2018-11-01T21:34:02.695Z,30.63
2018-11-01T21:36:30.406Z,26.47
2018-11-01T21:38:57.998Z,25.30
2018-11-01T21:41:25.648Z,28.50
2018-11-01T21:43:53.265Z,27.20
2018-11-01T21:46:20.855Z,29.57
2018-11-01T21:48:48.462Z,24.20
2018-11-01T21:51:16.026Z,23.50
2018-11-01T21:53:43.739Z,25.90
2018-11-01T21:56:11.473Z,28.60
2018-11-01T21:58:39.138Z,33.30
2018-11-01T22:01:06.791Z,22.60
2018-11-01T22:03:34.938Z,26.43
2018-11-01T22:06:02.560Z,25.10
2018-11-01T22:08:30.201Z,24.90
2018-11-01T22:10:57.793Z,26.90
2018-11-01T22:13:25.390Z,29.93
2018-11-01T22:15:52.936Z,28.97
2018-11-01T22:18:20.546Z,29.57
2018-11-01T22:20:48.144Z,31.63
2018-11-01T22:23:15.733Z,25.93
2018-11-01T22:25:43.365Z,29.57
2018-11-01T22:28:11.119Z,21.30
2018-11-01T22:30:38.626Z,28.73
2018-11-01T22:33:06.189Z,28.00
2018-11-01T22:35:33.777Z,24.20
2018-11-01T22:38:01.413Z,27.33
2018-11-01T22:40:29.030Z,23.30
2018-11-01T22:42:56.594Z,25.60
2018-11-01T22:45:24.176Z,25.40
2018-11-01T22:47:51.742Z,25.93
2018-11-01T22:50:19.336Z,22.93
2018-11-01T22:52:46.922Z,26.37
2018-11-01T22:55:14.485Z,18.93
2018-11-01T22:57:42.297Z,31.37
2018-11-01T23:00:11.375Z,23.20
2018-11-01T23:02:39.005Z,25.60
2018-11-01T23:05:06.987Z,23.73
2018-11-01T23:07:34.556Z,27.70
2018-11-01T23:10:02.122Z,28.00
2018-11-01T23:12:29.736Z,30.17
2018-11-01T23:14:57.318Z,25.10
2018-11-01T23:17:25.003Z,26.87
2018-11-01T23:19:52.634Z,28.43
2018-11-01T23:22:20.234Z,34.33
2018-11-01T23:24:47.859Z,26.27
2018-11-01T23:27:15.395Z,29.17
2018-11-01T23:29:43.024Z,27.77
2018-11-01T23:32:10.581Z,24.40
2018-11-01T23:34:38.227Z,28.87
2018-11-01T23:37:11.634Z,27.13
2018-11-01T23:39:44.581Z,26.77
2018-11-01T23:42:17.590Z,33.13
2018-11-01T23:44:50.463Z,27.07
2018-11-01T23:47:23.492Z,27.50
2018-11-01T23:49:56.238Z,30.27
2018-11-01T23:52:24.037Z,30.77
2018-11-01T23:54:52.074Z,24.53
2018-11-01T23:57:19.608Z,31.40
2018-11-01T23:59:47.394Z,29.13
